sensor_id;sensor_type;location;lat;lon;timestamp;temperature;humidity
18777;DHT22;9517;51.174;4.160;2023-06-14T00:02:19;20.10;99.90
18777;DHT22;9517;51.174;4.160;2023-06-14T00:04:48;20.20;99.90
18777;DHT22;9517;51.174;4.160;2023-06-14T00:07:17;20.10;99.90
18777;DHT22;9517;51.174;4.160;2023-06-14T00:09:44;20.10;99.90
18777;DHT22;9517;51.174;4.160;2023-06-14T00:12:11;20.10;99.90
18777;DHT22;9517;51.174;4.160;2023-06-14T00:14:38;20.10;99.90
18777;DHT22;9517;51.174;4.160;2023-06-14T00:17:05;20.10;99.90
18777;DHT22;9517;51.174;4.160;2023-06-14T00:19:32;20.10;99.90
18777;DHT22;9517;51.174;4.160;2023-06-14T00:22:03;20.00;99.90
18777;DHT22;9517;51.174;4.160;2023-06-14T00:24:30;19.90;99.90
18777;DHT22;9517;51.174;4.160;2023-06-14T00:26:57;19.90;99.90
18777;DHT22;9517;51.174;4.160;2023-06-14T00:29:25;20.00;99.90
18777;DHT22;9517;51.174;4.160;2023-06-14T00:31:52;20.00;99.90
18777;DHT22;9517;51.174;4.160;2023-06-14T00:34:19;19.90;99.90
18777;DHT22;9517;51.174;4.160;2023-06-14T00:36:46;20.00;99.90
18777;DHT22;9517;51.174;4.160;2023-06-14T00:39:14;20.00;99.90
18777;DHT22;9517;51.174;4.160;2023-06-14T00:41:41;20.00;99.90
18777;DHT22;9517;51.174;4.160;2023-06-14T00:44:09;19.90;99.90
18777;DHT22;9517;51.174;4.160;2023-06-14T00:46:36;19.90;99.90
18777;DHT22;9517;51.174;4.160;2023-06-14T00:49:03;19.90;99.90
18777;DHT22;9517;51.174;4.160;2023-06-14T00:51:30;19.80;99.90
18777;DHT22;9517;51.174;4.160;2023-06-14T00:53:57;19.80;99.90
18777;DHT22;9517;51.174;4.160;2023-06-14T00:56:26;19.80;99.90
18777;DHT22;9517;51.174;4.160;2023-06-14T00:58:53;19.80;99.90
18777;DHT22;9517;51.174;4.160;2023-06-14T01:01:21;19.80;99.90
18777;DHT22;9517;51.174;4.160;2023-06-14T01:03:49;19.70;99.90
18777;DHT22;9517;51.174;4.160;2023-06-14T01:06:20;19.70;99.90
18777;DHT22;9517;51.174;4.160;2023-06-14T01:09:03;19.70;99.90
18777;DHT22;9517;51.174;4.160;2023-06-14T01:11:39;19.70;99.90
18777;DHT22;9517;51.174;4.160;2023-06-14T01:14:10;19.60;99.90
18777;DHT22;9517;51.174;4.160;2023-06-14T01:16:38;19.50;99.90
18777;DHT22;9517;51.174;4.160;2023-06-14T01:19:06;19.70;99.90
18777;DHT22;9517;51.174;4.160;2023-06-14T01:21:37;19.70;99.90
18777;DHT22;9517;51.174;4.160;2023-06-14T01:24:09;19.70;99.90
18777;DHT22;9517;51.174;4.160;2023-06-14T01:26:36;19.60;99.90
18777;DHT22;9517;51.174;4.160;2023-06-14T01:29:05;19.40;99.90
18777;DHT22;9517;51.174;4.160;2023-06-14T01:31:33;19.50;99.90
18777;DHT22;9517;51.174;4.160;2023-06-14T01:34:07;19.40;99.90
18777;DHT22;9517;51.174;4.160;2023-06-14T01:36:36;19.20;99.90
18777;DHT22;9517;51.174;4.160;2023-06-14T01:39:10;19.10;99.90
18777;DHT22;9517;51.174;4.160;2023-06-14T01:41:39;19.00;99.90
18777;DHT22;9517;51.174;4.160;2023-06-14T01:44:07;19.10;99.90
18777;DHT22;9517;51.174;4.160;2023-06-14T01:46:34;19.20;99.90
18777;DHT22;9517;51.174;4.160;2023-06-14T01:49:02;19.20;99.90
18777;DHT22;9517;51.174;4.160;2023-06-14T01:51:29;19.20;99.90
18777;DHT22;9517;51.174;4.160;2023-06-14T01:53:56;19.20;99.90
18777;DHT22;9517;51.174;4.160;2023-06-14T01:56:25;19.20;99.90
18777;DHT22;9517;51.174;4.160;2023-06-14T01:58:52;19.20;99.90
18777;DHT22;9517;51.174;4.160;2023-06-14T02:01:20;19.10;99.90
18777;DHT22;9517;51.174;4.160;2023-06-14T02:03:48;19.10;99.90
18777;DHT22;9517;51.174;4.160;2023-06-14T02:06:17;19.10;99.90
18777;DHT22;9517;51.174;4.160;2023-06-14T02:08:44;19.00;99.90
18777;DHT22;9517;51.174;4.160;2023-06-14T02:11:11;18.90;99.90
18777;DHT22;9517;51.174;4.160;2023-06-14T02:13:40;18.90;99.90
18777;DHT22;9517;51.174;4.160;2023-06-14T02:16:07;18.70;99.90
18777;DHT22;9517;51.174;4.160;2023-06-14T02:18:35;18.70;99.90
18777;DHT22;9517;51.174;4.160;2023-06-14T02:21:03;18.80;99.90
18777;DHT22;9517;51.174;4.160;2023-06-14T02:23:30;18.90;99.90
18777;DHT22;9517;51.174;4.160;2023-06-14T02:25:57;18.80;99.90
18777;DHT22;9517;51.174;4.160;2023-06-14T02:28:24;18.70;99.90
18777;DHT22;9517;51.174;4.160;2023-06-14T02:30:53;18.70;99.90
18777;DHT22;9517;51.174;4.160;2023-06-14T02:33:20;18.70;99.90
18777;DHT22;9517;51.174;4.160;2023-06-14T02:35:47;18.60;99.90
18777;DHT22;9517;51.174;4.160;2023-06-14T02:38:15;18.60;99.90
18777;DHT22;9517;51.174;4.160;2023-06-14T02:40:42;18.60;99.90
18777;DHT22;9517;51.174;4.160;2023-06-14T02:43:10;18.70;99.90
18777;DHT22;9517;51.174;4.160;2023-06-14T02:45:37;18.70;99.90
18777;DHT22;9517;51.174;4.160;2023-06-14T02:48:05;18.70;99.90
18777;DHT22;9517;51.174;4.160;2023-06-14T02:50:32;18.60;99.90
18777;DHT22;9517;51.174;4.160;2023-06-14T02:53:00;18.70;99.90
18777;DHT22;9517;51.174;4.160;2023-06-14T02:55:28;18.70;99.90
18777;DHT22;9517;51.174;4.160;2023-06-14T02:57:55;18.60;99.90
18777;DHT22;9517;51.174;4.160;2023-06-14T03:00:23;18.60;99.90
18777;DHT22;9517;51.174;4.160;2023-06-14T03:02:50;18.60;99.90
18777;DHT22;9517;51.174;4.160;2023-06-14T03:05:19;18.60;99.90
18777;DHT22;9517;51.174;4.160;2023-06-14T03:07:47;18.60;99.90
18777;DHT22;9517;51.174;4.160;2023-06-14T03:10:16;18.70;99.90
18777;DHT22;9517;51.174;4.160;2023-06-14T03:12:43;18.80;99.90
18777;DHT22;9517;51.174;4.160;2023-06-14T03:15:10;18.80;99.90
18777;DHT22;9517;51.174;4.160;2023-06-14T03:17:38;18.70;99.90
18777;DHT22;9517;51.174;4.160;2023-06-14T03:20:10;18.70;99.90
18777;DHT22;9517;51.174;4.160;2023-06-14T03:22:39;18.60;99.90
18777;DHT22;9517;51.174;4.160;2023-06-14T03:25:07;18.60;99.90
18777;DHT22;9517;51.174;4.160;2023-06-14T03:27:35;18.60;99.90
18777;DHT22;9517;51.174;4.160;2023-06-14T03:30:03;18.60;99.90
18777;DHT22;9517;51.174;4.160;2023-06-14T03:32:30;18.50;99.90
18777;DHT22;9517;51.174;4.160;2023-06-14T03:34:58;18.50;99.90
18777;DHT22;9517;51.174;4.160;2023-06-14T03:37:26;18.50;99.90
18777;DHT22;9517;51.174;4.160;2023-06-14T03:39:54;18.40;99.90
18777;DHT22;9517;51.174;4.160;2023-06-14T03:42:21;18.30;99.90
18777;DHT22;9517;51.174;4.160;2023-06-14T03:44:49;18.30;99.90
18777;DHT22;9517;51.174;4.160;2023-06-14T03:47:16;18.20;99.90
18777;DHT22;9517;51.174;4.160;2023-06-14T03:49:43;18.10;99.90
18777;DHT22;9517;51.174;4.160;2023-06-14T03:52:10;18.10;99.90
18777;DHT22;9517;51.174;4.160;2023-06-14T03:54:37;18.10;99.90
18777;DHT22;9517;51.174;4.160;2023-06-14T03:57:06;18.10;99.90
18777;DHT22;9517;51.174;4.160;2023-06-14T03:59:33;18.20;99.90
18777;DHT22;9517;51.174;4.160;2023-06-14T04:02:00;18.20;99.90
18777;DHT22;9517;51.174;4.160;2023-06-14T04:04:28;18.20;99.90
18777;DHT22;9517;51.174;4.160;2023-06-14T04:06:55;18.20;99.90
18777;DHT22;9517;51.174;4.160;2023-06-14T04:09:24;18.30;99.90
18777;DHT22;9517;51.174;4.160;2023-06-14T04:11:51;18.20;99.90
18777;DHT22;9517;51.174;4.160;2023-06-14T04:14:20;18.30;99.90
18777;DHT22;9517;51.174;4.160;2023-06-14T04:16:48;18.30;99.90
18777;DHT22;9517;51.174;4.160;2023-06-14T04:19:15;18.30;99.90
18777;DHT22;9517;51.174;4.160;2023-06-14T04:21:42;18.30;99.90
18777;DHT22;9517;51.174;4.160;2023-06-14T04:24:09;18.50;99.90
18777;DHT22;9517;51.174;4.160;2023-06-14T04:26:39;18.40;99.90
18777;DHT22;9517;51.174;4.160;2023-06-14T04:29:06;18.10;99.90
18777;DHT22;9517;51.174;4.160;2023-06-14T04:31:35;18.20;99.90
18777;DHT22;9517;51.174;4.160;2023-06-14T04:34:05;18.40;99.90
18777;DHT22;9517;51.174;4.160;2023-06-14T04:36:32;18.50;99.90
18777;DHT22;9517;51.174;4.160;2023-06-14T04:39:02;18.60;99.90
18777;DHT22;9517;51.174;4.160;2023-06-14T04:41:30;18.60;99.90
18777;DHT22;9517;51.174;4.160;2023-06-14T04:43:57;18.70;99.90
18777;DHT22;9517;51.174;4.160;2023-06-14T04:46:27;18.90;99.90
18777;DHT22;9517;51.174;4.160;2023-06-14T04:48:56;18.90;99.90
18777;DHT22;9517;51.174;4.160;2023-06-14T04:51:23;19.00;99.90
18777;DHT22;9517;51.174;4.160;2023-06-14T04:53:55;19.10;99.90
18777;DHT22;9517;51.174;4.160;2023-06-14T04:56:24;19.20;99.90
18777;DHT22;9517;51.174;4.160;2023-06-14T04:58:51;19.30;99.90
18777;DHT22;9517;51.174;4.160;2023-06-14T05:01:20;19.30;99.90
18777;DHT22;9517;51.174;4.160;2023-06-14T05:03:48;19.40;99.90
18777;DHT22;9517;51.174;4.160;2023-06-14T05:06:17;19.50;99.90
18777;DHT22;9517;51.174;4.160;2023-06-14T05:08:44;19.60;99.90
18777;DHT22;9517;51.174;4.160;2023-06-14T05:11:11;19.60;99.90
18777;DHT22;9517;51.174;4.160;2023-06-14T05:13:38;19.60;99.90
18777;DHT22;9517;51.174;4.160;2023-06-14T05:16:06;19.80;99.90
18777;DHT22;9517;51.174;4.160;2023-06-14T05:18:33;19.90;99.90
18777;DHT22;9517;51.174;4.160;2023-06-14T05:21:01;20.00;99.90
18777;DHT22;9517;51.174;4.160;2023-06-14T05:23:29;19.90;99.90
18777;DHT22;9517;51.174;4.160;2023-06-14T05:25:56;20.00;99.90
18777;DHT22;9517;51.174;4.160;2023-06-14T05:28:23;20.20;99.90
18777;DHT22;9517;51.174;4.160;2023-06-14T05:30:51;20.40;99.90
18777;DHT22;9517;51.174;4.160;2023-06-14T05:33:18;20.50;99.90
18777;DHT22;9517;51.174;4.160;2023-06-14T05:35:45;20.50;99.90
18777;DHT22;9517;51.174;4.160;2023-06-14T05:38:12;20.60;99.90
18777;DHT22;9517;51.174;4.160;2023-06-14T05:40:41;20.80;99.90
18777;DHT22;9517;51.174;4.160;2023-06-14T05:43:08;20.90;99.90
18777;DHT22;9517;51.174;4.160;2023-06-14T05:45:36;21.00;99.90
18777;DHT22;9517;51.174;4.160;2023-06-14T05:48:03;21.10;99.90
18777;DHT22;9517;51.174;4.160;2023-06-14T05:50:30;21.20;99.90
18777;DHT22;9517;51.174;4.160;2023-06-14T05:52:57;21.30;99.90
18777;DHT22;9517;51.174;4.160;2023-06-14T05:55:25;21.40;99.90
18777;DHT22;9517;51.174;4.160;2023-06-14T05:57:53;21.40;99.90
18777;DHT22;9517;51.174;4.160;2023-06-14T06:00:21;21.60;99.90
18777;DHT22;9517;51.174;4.160;2023-06-14T06:02:48;21.80;99.90
18777;DHT22;9517;51.174;4.160;2023-06-14T06:05:15;22.00;99.90
18777;DHT22;9517;51.174;4.160;2023-06-14T06:07:42;21.90;99.90
18777;DHT22;9517;51.174;4.160;2023-06-14T06:10:11;21.90;99.90
18777;DHT22;9517;51.174;4.160;2023-06-14T06:12:38;22.10;99.90
18777;DHT22;9517;51.174;4.160;2023-06-14T06:15:07;22.20;99.90
18777;DHT22;9517;51.174;4.160;2023-06-14T06:17:37;22.30;99.90
18777;DHT22;9517;51.174;4.160;2023-06-14T06:20:05;22.40;99.90
18777;DHT22;9517;51.174;4.160;2023-06-14T06:22:34;22.40;99.90
18777;DHT22;9517;51.174;4.160;2023-06-14T06:25:01;22.60;99.90
18777;DHT22;9517;51.174;4.160;2023-06-14T06:27:28;22.60;99.90
18777;DHT22;9517;51.174;4.160;2023-06-14T06:29:55;22.70;99.90
18777;DHT22;9517;51.174;4.160;2023-06-14T06:32:24;22.90;99.90
18777;DHT22;9517;51.174;4.160;2023-06-14T06:34:51;23.00;99.90
18777;DHT22;9517;51.174;4.160;2023-06-14T06:37:19;23.30;99.90
18777;DHT22;9517;51.174;4.160;2023-06-14T06:39:46;23.40;99.90
18777;DHT22;9517;51.174;4.160;2023-06-14T06:42:14;23.40;99.90
18777;DHT22;9517;51.174;4.160;2023-06-14T06:44:41;23.50;99.90
18777;DHT22;9517;51.174;4.160;2023-06-14T06:47:08;23.60;99.90
18777;DHT22;9517;51.174;4.160;2023-06-14T06:49:38;23.70;99.90
18777;DHT22;9517;51.174;4.160;2023-06-14T06:52:06;23.90;99.90
18777;DHT22;9517;51.174;4.160;2023-06-14T06:54:34;24.00;99.90
18777;DHT22;9517;51.174;4.160;2023-06-14T06:57:01;24.10;99.90
18777;DHT22;9517;51.174;4.160;2023-06-14T06:59:29;24.10;99.90
18777;DHT22;9517;51.174;4.160;2023-06-14T07:01:56;24.10;99.90
18777;DHT22;9517;51.174;4.160;2023-06-14T07:04:23;24.30;99.90
18777;DHT22;9517;51.174;4.160;2023-06-14T07:06:52;24.60;99.90
18777;DHT22;9517;51.174;4.160;2023-06-14T07:09:19;24.70;99.90
18777;DHT22;9517;51.174;4.160;2023-06-14T07:11:47;24.80;99.90
18777;DHT22;9517;51.174;4.160;2023-06-14T07:14:14;24.80;99.90
18777;DHT22;9517;51.174;4.160;2023-06-14T07:16:41;25.00;99.90
18777;DHT22;9517;51.174;4.160;2023-06-14T07:19:08;25.20;99.90
18777;DHT22;9517;51.174;4.160;2023-06-14T07:21:36;25.20;99.90
18777;DHT22;9517;51.174;4.160;2023-06-14T07:24:06;25.20;99.90
18777;DHT22;9517;51.174;4.160;2023-06-14T07:26:34;25.40;99.90
18777;DHT22;9517;51.174;4.160;2023-06-14T07:29:01;25.50;99.90
18777;DHT22;9517;51.174;4.160;2023-06-14T07:31:28;25.70;99.90
18777;DHT22;9517;51.174;4.160;2023-06-14T07:33:56;25.70;99.90
18777;DHT22;9517;51.174;4.160;2023-06-14T07:36:23;25.90;99.90
18777;DHT22;9517;51.174;4.160;2023-06-14T07:38:50;26.00;99.90
18777;DHT22;9517;51.174;4.160;2023-06-14T07:41:19;26.00;99.90
18777;DHT22;9517;51.174;4.160;2023-06-14T07:43:46;26.10;99.90
18777;DHT22;9517;51.174;4.160;2023-06-14T07:46:14;26.20;99.90
18777;DHT22;9517;51.174;4.160;2023-06-14T07:48:42;26.30;99.90
18777;DHT22;9517;51.174;4.160;2023-06-14T07:51:09;26.40;99.90
18777;DHT22;9517;51.174;4.160;2023-06-14T07:53:36;26.30;99.90
18777;DHT22;9517;51.174;4.160;2023-06-14T07:56:04;26.50;99.90
18777;DHT22;9517;51.174;4.160;2023-06-14T07:58:32;26.70;99.90
18777;DHT22;9517;51.174;4.160;2023-06-14T08:01:00;27.10;99.90
18777;DHT22;9517;51.174;4.160;2023-06-14T08:03:31;26.90;99.90
18777;DHT22;9517;51.174;4.160;2023-06-14T08:05:58;27.00;99.90
18777;DHT22;9517;51.174;4.160;2023-06-14T08:08:26;27.10;99.90
18777;DHT22;9517;51.174;4.160;2023-06-14T08:10:53;27.10;99.90
18777;DHT22;9517;51.174;4.160;2023-06-14T08:13:20;27.20;99.90
18777;DHT22;9517;51.174;4.160;2023-06-14T08:15:49;27.00;99.90
18777;DHT22;9517;51.174;4.160;2023-06-14T08:18:16;27.30;99.90
18777;DHT22;9517;51.174;4.160;2023-06-14T08:20:43;27.60;99.90
18777;DHT22;9517;51.174;4.160;2023-06-14T08:23:11;27.50;99.90
18777;DHT22;9517;51.174;4.160;2023-06-14T08:25:38;27.40;99.90
18777;DHT22;9517;51.174;4.160;2023-06-14T08:28:06;27.40;99.90
18777;DHT22;9517;51.174;4.160;2023-06-14T08:30:33;27.50;99.90
18777;DHT22;9517;51.174;4.160;2023-06-14T08:33:02;27.30;99.90
18777;DHT22;9517;51.174;4.160;2023-06-14T08:35:29;27.50;99.90
18777;DHT22;9517;51.174;4.160;2023-06-14T08:37:56;27.50;99.90
18777;DHT22;9517;51.174;4.160;2023-06-14T08:40:23;27.60;99.90
18777;DHT22;9517;51.174;4.160;2023-06-14T08:42:52;27.60;99.90
18777;DHT22;9517;51.174;4.160;2023-06-14T08:45:19;27.50;99.90
18777;DHT22;9517;51.174;4.160;2023-06-14T08:47:47;27.60;99.90
18777;DHT22;9517;51.174;4.160;2023-06-14T08:50:21;28.00;99.90
18777;DHT22;9517;51.174;4.160;2023-06-14T08:52:53;28.00;99.90
18777;DHT22;9517;51.174;4.160;2023-06-14T08:55:23;28.00;99.90
18777;DHT22;9517;51.174;4.160;2023-06-14T08:57:57;28.10;98.80
18777;DHT22;9517;51.174;4.160;2023-06-14T09:00:25;28.30;99.70
18777;DHT22;9517;51.174;4.160;2023-06-14T09:02:53;28.50;99.80
18777;DHT22;9517;51.174;4.160;2023-06-14T09:05:25;28.80;99.90
18777;DHT22;9517;51.174;4.160;2023-06-14T09:07:53;29.10;98.50
18777;DHT22;9517;51.174;4.160;2023-06-14T09:10:21;29.30;98.50
18777;DHT22;9517;51.174;4.160;2023-06-14T09:12:49;29.20;97.70
18777;DHT22;9517;51.174;4.160;2023-06-14T09:15:16;29.20;98.00
18777;DHT22;9517;51.174;4.160;2023-06-14T09:17:43;29.50;98.30
18777;DHT22;9517;51.174;4.160;2023-06-14T09:20:11;29.70;97.20
18777;DHT22;9517;51.174;4.160;2023-06-14T09:22:40;29.60;97.00
18777;DHT22;9517;51.174;4.160;2023-06-14T09:25:08;29.30;96.50
18777;DHT22;9517;51.174;4.160;2023-06-14T09:27:37;29.50;97.10
18777;DHT22;9517;51.174;4.160;2023-06-14T09:30:08;29.80;96.60
18777;DHT22;9517;51.174;4.160;2023-06-14T09:32:37;29.70;96.20
18777;DHT22;9517;51.174;4.160;2023-06-14T09:35:06;29.90;96.10
18777;DHT22;9517;51.174;4.160;2023-06-14T09:37:34;30.10;95.30
18777;DHT22;9517;51.174;4.160;2023-06-14T09:40:06;30.20;94.90
18777;DHT22;9517;51.174;4.160;2023-06-14T09:42:33;30.30;95.10
18777;DHT22;9517;51.174;4.160;2023-06-14T09:45:02;30.50;94.50
18777;DHT22;9517;51.174;4.160;2023-06-14T09:47:30;30.70;94.70
18777;DHT22;9517;51.174;4.160;2023-06-14T09:49:57;31.10;93.80
18777;DHT22;9517;51.174;4.160;2023-06-14T09:52:27;31.30;94.30
18777;DHT22;9517;51.174;4.160;2023-06-14T09:54:55;31.70;93.60
18777;DHT22;9517;51.174;4.160;2023-06-14T09:57:24;31.90;91.70
18777;DHT22;9517;51.174;4.160;2023-06-14T09:59:56;32.00;91.20
18777;DHT22;9517;51.174;4.160;2023-06-14T10:02:27;31.90;90.40
18777;DHT22;9517;51.174;4.160;2023-06-14T10:05:02;32.30;90.60
18777;DHT22;9517;51.174;4.160;2023-06-14T10:07:35;32.30;88.50
18777;DHT22;9517;51.174;4.160;2023-06-14T10:10:02;32.40;88.00
18777;DHT22;9517;51.174;4.160;2023-06-14T10:12:32;32.40;88.20
18777;DHT22;9517;51.174;4.160;2023-06-14T10:14:59;32.30;87.40
18777;DHT22;9517;51.174;4.160;2023-06-14T10:17:35;32.60;85.20
18777;DHT22;9517;51.174;4.160;2023-06-14T10:20:15;32.70;85.70
18777;DHT22;9517;51.174;4.160;2023-06-14T10:22:48;32.80;83.70
18777;DHT22;9517;51.174;4.160;2023-06-14T10:25:27;33.00;85.30
18777;DHT22;9517;51.174;4.160;2023-06-14T10:31:07;33.10;82.20
18777;DHT22;9517;51.174;4.160;2023-06-14T10:33:36;33.40;81.50
18777;DHT22;9517;51.174;4.160;2023-06-14T10:36:25;33.50;81.00
18777;DHT22;9517;51.174;4.160;2023-06-14T10:39:01;33.40;80.60
18777;DHT22;9517;51.174;4.160;2023-06-14T10:41:31;33.30;79.10
18777;DHT22;9517;51.174;4.160;2023-06-14T10:44:42;33.50;78.90
18777;DHT22;9517;51.174;4.160;2023-06-14T10:47:13;33.90;77.20
18777;DHT22;9517;51.174;4.160;2023-06-14T10:49:50;34.30;76.50
18777;DHT22;9517;51.174;4.160;2023-06-14T10:52:22;34.40;76.20
18777;DHT22;9517;51.174;4.160;2023-06-14T10:54:58;34.60;76.30
18777;DHT22;9517;51.174;4.160;2023-06-14T10:57:26;35.30;73.90
18777;DHT22;9517;51.174;4.160;2023-06-14T10:59:56;35.80;73.70
18777;DHT22;9517;51.174;4.160;2023-06-14T11:05:48;36.20;71.50
18777;DHT22;9517;51.174;4.160;2023-06-14T11:08:56;36.80;69.20
18777;DHT22;9517;51.174;4.160;2023-06-14T11:11:32;37.50;71.30
18777;DHT22;9517;51.174;4.160;2023-06-14T11:14:01;38.10;66.50
18777;DHT22;9517;51.174;4.160;2023-06-14T11:16:30;38.30;64.10
18777;DHT22;9517;51.174;4.160;2023-06-14T11:19:01;38.50;64.10
18777;DHT22;9517;51.174;4.160;2023-06-14T11:21:29;38.80;63.60
18777;DHT22;9517;51.174;4.160;2023-06-14T11:23:58;39.20;63.90
18777;DHT22;9517;51.174;4.160;2023-06-14T11:26:27;39.70;61.40
18777;DHT22;9517;51.174;4.160;2023-06-14T11:28:58;39.90;60.10
18777;DHT22;9517;51.174;4.160;2023-06-14T11:31:26;40.10;58.60
18777;DHT22;9517;51.174;4.160;2023-06-14T11:33:55;40.30;59.00
18777;DHT22;9517;51.174;4.160;2023-06-14T11:36:23;40.00;59.00
18777;DHT22;9517;51.174;4.160;2023-06-14T11:38:58;40.00;58.20
18777;DHT22;9517;51.174;4.160;2023-06-14T11:41:31;39.40;58.40
18777;DHT22;9517;51.174;4.160;2023-06-14T11:44:00;39.70;58.20
18777;DHT22;9517;51.174;4.160;2023-06-14T11:46:27;40.30;57.00
18777;DHT22;9517;51.174;4.160;2023-06-14T11:48:56;40.40;55.70
18777;DHT22;9517;51.174;4.160;2023-06-14T11:51:23;41.60;55.70
18777;DHT22;9517;51.174;4.160;2023-06-14T11:53:51;41.60;55.70
18777;DHT22;9517;51.174;4.160;2023-06-14T11:56:18;41.60;56.10
18777;DHT22;9517;51.174;4.160;2023-06-14T11:58:46;41.30;57.40
18777;DHT22;9517;51.174;4.160;2023-06-14T12:01:16;41.40;56.70
18777;DHT22;9517;51.174;4.160;2023-06-14T12:03:48;41.80;54.40
18777;DHT22;9517;51.174;4.160;2023-06-14T12:06:26;42.00;54.90
18777;DHT22;9517;51.174;4.160;2023-06-14T12:08:55;41.20;54.10
18777;DHT22;9517;51.174;4.160;2023-06-14T12:11:23;40.90;54.20
18777;DHT22;9517;51.174;4.160;2023-06-14T12:13:50;40.40;54.40
18777;DHT22;9517;51.174;4.160;2023-06-14T12:16:20;39.40;54.10
18777;DHT22;9517;51.174;4.160;2023-06-14T12:18:47;39.80;55.80
18777;DHT22;9517;51.174;4.160;2023-06-14T12:21:14;40.60;55.40
18777;DHT22;9517;51.174;4.160;2023-06-14T12:23:45;40.60;56.00
18777;DHT22;9517;51.174;4.160;2023-06-14T12:26:13;41.00;54.20
18777;DHT22;9517;51.174;4.160;2023-06-14T12:28:41;40.40;54.00
18777;DHT22;9517;51.174;4.160;2023-06-14T12:31:09;40.80;54.20
18777;DHT22;9517;51.174;4.160;2023-06-14T12:33:37;40.70;54.70
18777;DHT22;9517;51.174;4.160;2023-06-14T12:36:07;40.90;54.00
18777;DHT22;9517;51.174;4.160;2023-06-14T12:38:34;40.90;55.20
18777;DHT22;9517;51.174;4.160;2023-06-14T12:41:03;40.60;54.10
18777;DHT22;9517;51.174;4.160;2023-06-14T12:43:30;40.40;54.80
18777;DHT22;9517;51.174;4.160;2023-06-14T12:45:58;40.10;53.50
18777;DHT22;9517;51.174;4.160;2023-06-14T12:48:25;40.40;54.20
18777;DHT22;9517;51.174;4.160;2023-06-14T12:50:52;40.80;55.30
18777;DHT22;9517;51.174;4.160;2023-06-14T12:53:20;41.10;53.30
18777;DHT22;9517;51.174;4.160;2023-06-14T12:55:48;41.40;55.10
18777;DHT22;9517;51.174;4.160;2023-06-14T12:58:17;41.70;53.70
18777;DHT22;9517;51.174;4.160;2023-06-14T13:00:45;41.90;52.90
18777;DHT22;9517;51.174;4.160;2023-06-14T13:03:12;41.20;53.30
18777;DHT22;9517;51.174;4.160;2023-06-14T13:05:39;41.70;53.40
18777;DHT22;9517;51.174;4.160;2023-06-14T13:08:07;41.40;52.20
18777;DHT22;9517;51.174;4.160;2023-06-14T13:10:35;40.90;53.00
18777;DHT22;9517;51.174;4.160;2023-06-14T13:13:02;40.70;53.80
18777;DHT22;9517;51.174;4.160;2023-06-14T13:15:31;39.50;52.90
18777;DHT22;9517;51.174;4.160;2023-06-14T13:17:58;39.90;53.90
18777;DHT22;9517;51.174;4.160;2023-06-14T13:20:25;40.40;54.20
18777;DHT22;9517;51.174;4.160;2023-06-14T13:22:52;40.10;51.50
18777;DHT22;9517;51.174;4.160;2023-06-14T13:25:19;40.00;53.20
18777;DHT22;9517;51.174;4.160;2023-06-14T13:27:48;39.70;53.00
18777;DHT22;9517;51.174;4.160;2023-06-14T13:30:15;40.00;53.70
18777;DHT22;9517;51.174;4.160;2023-06-14T13:32:44;40.60;53.40
18777;DHT22;9517;51.174;4.160;2023-06-14T13:35:11;41.20;52.50
18777;DHT22;9517;51.174;4.160;2023-06-14T13:37:38;41.30;52.80
18777;DHT22;9517;51.174;4.160;2023-06-14T13:40:06;41.20;50.90
18777;DHT22;9517;51.174;4.160;2023-06-14T13:42:33;38.80;51.50
18777;DHT22;9517;51.174;4.160;2023-06-14T13:45:01;37.50;52.30
18777;DHT22;9517;51.174;4.160;2023-06-14T13:47:29;37.20;52.70
18777;DHT22;9517;51.174;4.160;2023-06-14T13:49:58;38.10;56.00
18777;DHT22;9517;51.174;4.160;2023-06-14T13:52:25;38.90;53.70
18777;DHT22;9517;51.174;4.160;2023-06-14T13:54:53;39.40;52.00
18777;DHT22;9517;51.174;4.160;2023-06-14T13:57:20;39.80;53.90
18777;DHT22;9517;51.174;4.160;2023-06-14T13:59:47;40.00;52.20
18777;DHT22;9517;51.174;4.160;2023-06-14T14:02:14;40.00;52.40
18777;DHT22;9517;51.174;4.160;2023-06-14T14:04:41;39.20;51.30
18777;DHT22;9517;51.174;4.160;2023-06-14T14:07:10;39.40;52.50
18777;DHT22;9517;51.174;4.160;2023-06-14T14:09:37;40.00;51.90
18777;DHT22;9517;51.174;4.160;2023-06-14T14:12:06;39.30;50.20
18777;DHT22;9517;51.174;4.160;2023-06-14T14:14:33;39.20;52.30
18777;DHT22;9517;51.174;4.160;2023-06-14T14:17:00;39.60;52.50
18777;DHT22;9517;51.174;4.160;2023-06-14T14:19:27;39.60;51.20
18777;DHT22;9517;51.174;4.160;2023-06-14T14:21:54;39.80;50.60
18777;DHT22;9517;51.174;4.160;2023-06-14T14:24:22;40.00;52.30
18777;DHT22;9517;51.174;4.160;2023-06-14T14:26:49;39.70;52.30
18777;DHT22;9517;51.174;4.160;2023-06-14T14:29:19;40.00;50.70
18777;DHT22;9517;51.174;4.160;2023-06-14T14:31:46;40.00;51.20
18777;DHT22;9517;51.174;4.160;2023-06-14T14:34:13;39.70;50.50
18777;DHT22;9517;51.174;4.160;2023-06-14T14:36:40;38.70;50.80
18777;DHT22;9517;51.174;4.160;2023-06-14T14:39:08;37.60;52.50
18777;DHT22;9517;51.174;4.160;2023-06-14T14:41:36;37.70;52.80
18777;DHT22;9517;51.174;4.160;2023-06-14T14:44:04;38.20;52.00
18777;DHT22;9517;51.174;4.160;2023-06-14T14:46:31;38.60;50.60
18777;DHT22;9517;51.174;4.160;2023-06-14T14:48:59;38.20;51.20
18777;DHT22;9517;51.174;4.160;2023-06-14T14:51:26;38.20;51.30
18777;DHT22;9517;51.174;4.160;2023-06-14T14:53:53;38.30;52.40
18777;DHT22;9517;51.174;4.160;2023-06-14T14:56:22;38.60;51.50
18777;DHT22;9517;51.174;4.160;2023-06-14T14:58:50;38.00;51.30
18777;DHT22;9517;51.174;4.160;2023-06-14T15:01:17;38.60;51.90
18777;DHT22;9517;51.174;4.160;2023-06-14T15:03:44;39.30;51.00
18777;DHT22;9517;51.174;4.160;2023-06-14T15:06:11;39.50;50.80
18777;DHT22;9517;51.174;4.160;2023-06-14T15:08:38;39.40;52.10
18777;DHT22;9517;51.174;4.160;2023-06-14T15:11:05;39.50;50.90
18777;DHT22;9517;51.174;4.160;2023-06-14T15:13:32;39.70;51.20
18777;DHT22;9517;51.174;4.160;2023-06-14T15:16:01;39.60;50.20
18777;DHT22;9517;51.174;4.160;2023-06-14T15:18:28;39.90;52.00
18777;DHT22;9517;51.174;4.160;2023-06-14T15:20:55;39.90;51.30
18777;DHT22;9517;51.174;4.160;2023-06-14T15:23:22;39.60;50.20
18777;DHT22;9517;51.174;4.160;2023-06-14T15:25:49;39.80;50.60
18777;DHT22;9517;51.174;4.160;2023-06-14T15:28:17;39.70;50.30
18777;DHT22;9517;51.174;4.160;2023-06-14T15:30:44;39.40;51.60
18777;DHT22;9517;51.174;4.160;2023-06-14T15:33:13;39.70;51.40
18777;DHT22;9517;51.174;4.160;2023-06-14T15:35:40;40.20;52.60
18777;DHT22;9517;51.174;4.160;2023-06-14T15:38:07;40.50;50.90
18777;DHT22;9517;51.174;4.160;2023-06-14T15:40:34;40.60;50.10
18777;DHT22;9517;51.174;4.160;2023-06-14T15:43:01;40.50;49.90
18777;DHT22;9517;51.174;4.160;2023-06-14T15:45:29;39.70;51.30
18777;DHT22;9517;51.174;4.160;2023-06-14T15:47:57;39.70;50.20
18777;DHT22;9517;51.174;4.160;2023-06-14T15:50:26;38.80;50.20
18777;DHT22;9517;51.174;4.160;2023-06-14T15:52:53;38.80;50.80
18777;DHT22;9517;51.174;4.160;2023-06-14T15:55:21;39.20;53.60
18777;DHT22;9517;51.174;4.160;2023-06-14T15:57:48;39.20;51.70
18777;DHT22;9517;51.174;4.160;2023-06-14T16:00:16;39.30;51.90